sensor_id;sensor_type;location;lat;lon;timestamp;temperature;humidity
8684;DHT22;4379;59.744;18.206;2023-07-24T00:01:55;9.20;99.90
8684;DHT22;4379;59.744;18.206;2023-07-24T00:04:23;9.10;99.90
8684;DHT22;4379;59.744;18.206;2023-07-24T00:06:50;9.10;99.90
8684;DHT22;4379;59.744;18.206;2023-07-24T00:09:17;9.10;99.90
8684;DHT22;4379;59.744;18.206;2023-07-24T00:11:44;9.10;99.90
8684;DHT22;4379;59.744;18.206;2023-07-24T00:14:12;9.10;99.90
8684;DHT22;4379;59.744;18.206;2023-07-24T00:16:39;9.00;99.90
8684;DHT22;4379;59.744;18.206;2023-07-24T00:19:07;9.00;99.90
8684;DHT22;4379;59.744;18.206;2023-07-24T00:21:34;8.90;99.90
8684;DHT22;4379;59.744;18.206;2023-07-24T00:24:01;8.90;99.90
8684;DHT22;4379;59.744;18.206;2023-07-24T00:26:28;8.80;99.90
8684;DHT22;4379;59.744;18.206;2023-07-24T00:28:56;8.80;99.90
8684;DHT22;4379;59.744;18.206;2023-07-24T00:31:23;8.80;99.90
8684;DHT22;4379;59.744;18.206;2023-07-24T00:33:50;8.80;99.90
8684;DHT22;4379;59.744;18.206;2023-07-24T00:36:18;8.80;99.90
8684;DHT22;4379;59.744;18.206;2023-07-24T00:38:45;8.70;99.90
8684;DHT22;4379;59.744;18.206;2023-07-24T00:41:12;8.70;99.90
8684;DHT22;4379;59.744;18.206;2023-07-24T00:43:39;8.60;99.90
8684;DHT22;4379;59.744;18.206;2023-07-24T00:46:10;8.60;99.90
8684;DHT22;4379;59.744;18.206;2023-07-24T00:48:38;8.50;99.90
8684;DHT22;4379;59.744;18.206;2023-07-24T00:51:06;8.50;99.90
8684;DHT22;4379;59.744;18.206;2023-07-24T00:53:33;8.40;99.90
8684;DHT22;4379;59.744;18.206;2023-07-24T00:56:01;8.40;99.90
8684;DHT22;4379;59.744;18.206;2023-07-24T00:58:28;8.40;99.90
8684;DHT22;4379;59.744;18.206;2023-07-24T01:00:56;8.40;99.90
8684;DHT22;4379;59.744;18.206;2023-07-24T01:03:33;8.30;99.90
8684;DHT22;4379;59.744;18.206;2023-07-24T01:06:01;8.20;99.90
8684;DHT22;4379;59.744;18.206;2023-07-24T01:08:29;8.20;99.90
8684;DHT22;4379;59.744;18.206;2023-07-24T01:11:01;8.20;99.90
8684;DHT22;4379;59.744;18.206;2023-07-24T01:13:33;8.20;99.90
8684;DHT22;4379;59.744;18.206;2023-07-24T01:16:08;8.10;99.90
8684;DHT22;4379;59.744;18.206;2023-07-24T01:18:39;8.00;99.90
8684;DHT22;4379;59.744;18.206;2023-07-24T01:21:08;8.00;99.90
8684;DHT22;4379;59.744;18.206;2023-07-24T01:26:17;7.90;99.90
8684;DHT22;4379;59.744;18.206;2023-07-24T01:28:45;7.90;99.90
8684;DHT22;4379;59.744;18.206;2023-07-24T01:31:13;7.90;99.90
8684;DHT22;4379;59.744;18.206;2023-07-24T01:33:40;7.90;99.90
8684;DHT22;4379;59.744;18.206;2023-07-24T01:36:08;7.90;99.90
8684;DHT22;4379;59.744;18.206;2023-07-24T01:38:37;7.80;99.90
8684;DHT22;4379;59.744;18.206;2023-07-24T01:41:05;7.80;99.90
8684;DHT22;4379;59.744;18.206;2023-07-24T01:43:32;7.80;99.90
8684;DHT22;4379;59.744;18.206;2023-07-24T01:45:59;7.90;99.90
8684;DHT22;4379;59.744;18.206;2023-07-24T01:48:27;7.80;99.90
8684;DHT22;4379;59.744;18.206;2023-07-24T01:50:54;7.80;99.90
8684;DHT22;4379;59.744;18.206;2023-07-24T01:53:21;7.70;99.90
8684;DHT22;4379;59.744;18.206;2023-07-24T01:55:48;7.70;99.90
8684;DHT22;4379;59.744;18.206;2023-07-24T01:58:15;7.60;99.90
8684;DHT22;4379;59.744;18.206;2023-07-24T02:00:43;7.60;99.90
8684;DHT22;4379;59.744;18.206;2023-07-24T02:03:10;7.50;99.90
8684;DHT22;4379;59.744;18.206;2023-07-24T02:05:38;7.50;99.90
8684;DHT22;4379;59.744;18.206;2023-07-24T02:08:05;7.50;99.90
8684;DHT22;4379;59.744;18.206;2023-07-24T02:10:32;7.50;99.90
8684;DHT22;4379;59.744;18.206;2023-07-24T02:13:03;7.40;99.90
8684;DHT22;4379;59.744;18.206;2023-07-24T02:15:30;7.40;99.90
8684;DHT22;4379;59.744;18.206;2023-07-24T02:17:57;7.40;99.90
8684;DHT22;4379;59.744;18.206;2023-07-24T02:20:24;7.40;99.90
8684;DHT22;4379;59.744;18.206;2023-07-24T02:22:52;7.40;99.90
8684;DHT22;4379;59.744;18.206;2023-07-24T02:25:19;7.30;99.90
8684;DHT22;4379;59.744;18.206;2023-07-24T02:27:46;7.40;99.90
8684;DHT22;4379;59.744;18.206;2023-07-24T02:30:13;7.30;99.90
8684;DHT22;4379;59.744;18.206;2023-07-24T02:32:40;7.40;99.90
8684;DHT22;4379;59.744;18.206;2023-07-24T02:35:08;7.30;99.90
8684;DHT22;4379;59.744;18.206;2023-07-24T02:37:35;7.30;99.90
8684;DHT22;4379;59.744;18.206;2023-07-24T02:40:03;7.30;99.90
8684;DHT22;4379;59.744;18.206;2023-07-24T02:42:30;7.40;99.90
8684;DHT22;4379;59.744;18.206;2023-07-24T02:44:57;7.40;99.90
8684;DHT22;4379;59.744;18.206;2023-07-24T02:47:24;7.40;99.90
8684;DHT22;4379;59.744;18.206;2023-07-24T02:49:52;7.40;99.90
8684;DHT22;4379;59.744;18.206;2023-07-24T02:52:19;7.30;99.90
8684;DHT22;4379;59.744;18.206;2023-07-24T02:54:46;7.30;99.90
8684;DHT22;4379;59.744;18.206;2023-07-24T02:57:13;7.40;99.90
8684;DHT22;4379;59.744;18.206;2023-07-24T02:59:40;7.40;99.90
8684;DHT22;4379;59.744;18.206;2023-07-24T03:02:07;7.40;99.90
8684;DHT22;4379;59.744;18.206;2023-07-24T03:04:34;7.40;99.90
8684;DHT22;4379;59.744;18.206;2023-07-24T03:07:02;7.40;99.90
8684;DHT22;4379;59.744;18.206;2023-07-24T03:09:29;7.40;99.90
8684;DHT22;4379;59.744;18.206;2023-07-24T03:11:56;7.50;99.90
8684;DHT22;4379;59.744;18.206;2023-07-24T03:14:24;7.50;99.90
8684;DHT22;4379;59.744;18.206;2023-07-24T03:16:51;7.60;99.90
8684;DHT22;4379;59.744;18.206;2023-07-24T03:19:18;7.60;99.90
8684;DHT22;4379;59.744;18.206;2023-07-24T03:21:47;7.60;99.90
8684;DHT22;4379;59.744;18.206;2023-07-24T03:24:14;7.50;99.90
8684;DHT22;4379;59.744;18.206;2023-07-24T03:26:41;7.60;99.90
8684;DHT22;4379;59.744;18.206;2023-07-24T03:29:09;7.70;99.90
8684;DHT22;4379;59.744;18.206;2023-07-24T03:31:36;7.90;99.90
8684;DHT22;4379;59.744;18.206;2023-07-24T03:34:03;8.00;99.90
8684;DHT22;4379;59.744;18.206;2023-07-24T03:36:30;8.00;99.90
8684;DHT22;4379;59.744;18.206;2023-07-24T03:38:58;8.00;99.90
8684;DHT22;4379;59.744;18.206;2023-07-24T03:41:25;8.00;99.90
8684;DHT22;4379;59.744;18.206;2023-07-24T03:43:52;8.10;99.90
8684;DHT22;4379;59.744;18.206;2023-07-24T03:46:19;8.10;99.90
8684;DHT22;4379;59.744;18.206;2023-07-24T03:48:47;8.10;99.90
8684;DHT22;4379;59.744;18.206;2023-07-24T03:51:15;8.10;99.90
8684;DHT22;4379;59.744;18.206;2023-07-24T03:53:42;8.10;99.90
8684;DHT22;4379;59.744;18.206;2023-07-24T03:56:09;8.20;99.90
8684;DHT22;4379;59.744;18.206;2023-07-24T03:58:37;8.40;99.90
8684;DHT22;4379;59.744;18.206;2023-07-24T04:01:07;8.60;99.90
8684;DHT22;4379;59.744;18.206;2023-07-24T04:03:35;8.70;99.90
8684;DHT22;4379;59.744;18.206;2023-07-24T04:06:02;8.80;99.90
8684;DHT22;4379;59.744;18.206;2023-07-24T04:08:30;8.90;99.90
8684;DHT22;4379;59.744;18.206;2023-07-24T04:10:57;9.00;99.90
8684;DHT22;4379;59.744;18.206;2023-07-24T04:13:24;9.20;99.90
8684;DHT22;4379;59.744;18.206;2023-07-24T04:15:51;9.50;99.90
8684;DHT22;4379;59.744;18.206;2023-07-24T04:18:18;9.90;99.90
8684;DHT22;4379;59.744;18.206;2023-07-24T04:20:46;10.40;99.90
8684;DHT22;4379;59.744;18.206;2023-07-24T04:23:13;10.90;99.90
8684;DHT22;4379;59.744;18.206;2023-07-24T04:25:40;11.30;99.90
8684;DHT22;4379;59.744;18.206;2023-07-24T04:28:07;11.40;99.90
8684;DHT22;4379;59.744;18.206;2023-07-24T04:30:34;11.60;99.90
8684;DHT22;4379;59.744;18.206;2023-07-24T04:33:02;11.90;99.90
8684;DHT22;4379;59.744;18.206;2023-07-24T04:35:29;12.50;99.90
8684;DHT22;4379;59.744;18.206;2023-07-24T04:37:56;13.40;99.90
8684;DHT22;4379;59.744;18.206;2023-07-24T04:40:24;14.80;99.90
8684;DHT22;4379;59.744;18.206;2023-07-24T04:42:51;16.20;99.90
8684;DHT22;4379;59.744;18.206;2023-07-24T04:45:18;16.70;99.90
8684;DHT22;4379;59.744;18.206;2023-07-24T04:47:49;17.60;99.90
8684;DHT22;4379;59.744;18.206;2023-07-24T04:50:17;19.60;99.90
8684;DHT22;4379;59.744;18.206;2023-07-24T04:52:44;21.80;99.90
8684;DHT22;4379;59.744;18.206;2023-07-24T04:55:11;23.60;99.90
8684;DHT22;4379;59.744;18.206;2023-07-24T04:57:38;25.00;99.90
8684;DHT22;4379;59.744;18.206;2023-07-24T05:00:06;25.60;99.90
8684;DHT22;4379;59.744;18.206;2023-07-24T05:02:33;25.50;99.90
8684;DHT22;4379;59.744;18.206;2023-07-24T05:05:01;24.40;99.90
8684;DHT22;4379;59.744;18.206;2023-07-24T05:07:29;24.00;99.90
8684;DHT22;4379;59.744;18.206;2023-07-24T05:09:56;22.90;99.90
8684;DHT22;4379;59.744;18.206;2023-07-24T05:12:23;22.30;99.90
8684;DHT22;4379;59.744;18.206;2023-07-24T05:14:50;21.40;99.90
8684;DHT22;4379;59.744;18.206;2023-07-24T05:17:18;20.90;99.90
8684;DHT22;4379;59.744;18.206;2023-07-24T05:19:45;20.10;99.90
8684;DHT22;4379;59.744;18.206;2023-07-24T05:22:12;19.90;99.90
8684;DHT22;4379;59.744;18.206;2023-07-24T05:24:40;20.00;99.90
8684;DHT22;4379;59.744;18.206;2023-07-24T05:27:07;20.50;99.90
8684;DHT22;4379;59.744;18.206;2023-07-24T05:29:34;21.20;99.90
8684;DHT22;4379;59.744;18.206;2023-07-24T05:32:01;23.00;99.90
8684;DHT22;4379;59.744;18.206;2023-07-24T05:34:29;25.40;99.90
8684;DHT22;4379;59.744;18.206;2023-07-24T05:36:56;28.00;99.90
8684;DHT22;4379;59.744;18.206;2023-07-24T05:39:23;29.10;99.90
8684;DHT22;4379;59.744;18.206;2023-07-24T05:41:50;31.10;99.90
8684;DHT22;4379;59.744;18.206;2023-07-24T05:44:18;32.30;99.90
8684;DHT22;4379;59.744;18.206;2023-07-24T05:46:45;32.80;99.90
8684;DHT22;4379;59.744;18.206;2023-07-24T05:49:12;34.10;99.90
8684;DHT22;4379;59.744;18.206;2023-07-24T05:51:39;34.20;99.90
8684;DHT22;4379;59.744;18.206;2023-07-24T05:54:07;34.80;99.90
8684;DHT22;4379;59.744;18.206;2023-07-24T05:56:34;35.90;99.90
8684;DHT22;4379;59.744;18.206;2023-07-24T05:59:01;35.50;99.90
8684;DHT22;4379;59.744;18.206;2023-07-24T06:01:28;36.70;99.90
8684;DHT22;4379;59.744;18.206;2023-07-24T06:03:56;37.50;99.90
8684;DHT22;4379;59.744;18.206;2023-07-24T06:06:23;38.10;99.90
8684;DHT22;4379;59.744;18.206;2023-07-24T06:08:50;39.30;99.90
8684;DHT22;4379;59.744;18.206;2023-07-24T06:11:17;39.20;99.90
8684;DHT22;4379;59.744;18.206;2023-07-24T06:13:45;38.10;99.90
8684;DHT22;4379;59.744;18.206;2023-07-24T06:16:12;35.50;99.90
8684;DHT22;4379;59.744;18.206;2023-07-24T06:18:40;36.00;99.90
8684;DHT22;4379;59.744;18.206;2023-07-24T06:21:09;37.70;99.90
8684;DHT22;4379;59.744;18.206;2023-07-24T06:23:37;38.60;99.90
8684;DHT22;4379;59.744;18.206;2023-07-24T06:26:04;37.20;99.90
8684;DHT22;4379;59.744;18.206;2023-07-24T06:28:31;36.70;99.90
8684;DHT22;4379;59.744;18.206;2023-07-24T06:31:00;38.80;99.90
8684;DHT22;4379;59.744;18.206;2023-07-24T06:33:27;40.40;99.70
8684;DHT22;4379;59.744;18.206;2023-07-24T06:35:54;36.10;99.90
8684;DHT22;4379;59.744;18.206;2023-07-24T06:38:22;32.50;99.90
8684;DHT22;4379;59.744;18.206;2023-07-24T06:40:49;35.50;99.90
8684;DHT22;4379;59.744;18.206;2023-07-24T06:43:17;36.20;99.90
8684;DHT22;4379;59.744;18.206;2023-07-24T06:45:44;36.80;99.10
8684;DHT22;4379;59.744;18.206;2023-07-24T06:48:11;36.80;99.90
8684;DHT22;4379;59.744;18.206;2023-07-24T06:50:38;38.90;98.30
8684;DHT22;4379;59.744;18.206;2023-07-24T06:53:06;33.20;99.90
8684;DHT22;4379;59.744;18.206;2023-07-24T06:55:33;34.30;99.90
8684;DHT22;4379;59.744;18.206;2023-07-24T06:58:00;35.40;99.90
8684;DHT22;4379;59.744;18.206;2023-07-24T07:00:27;37.80;99.70
8684;DHT22;4379;59.744;18.206;2023-07-24T07:02:54;35.40;99.90
8684;DHT22;4379;59.744;18.206;2023-07-24T07:05:22;34.10;99.90
8684;DHT22;4379;59.744;18.206;2023-07-24T07:07:49;34.10;99.90
8684;DHT22;4379;59.744;18.206;2023-07-24T07:10:16;32.40;99.90
8684;DHT22;4379;59.744;18.206;2023-07-24T07:12:43;30.00;99.90
8684;DHT22;4379;59.744;18.206;2023-07-24T07:15:10;30.60;99.90
8684;DHT22;4379;59.744;18.206;2023-07-24T07:17:38;29.80;99.90
8684;DHT22;4379;59.744;18.206;2023-07-24T07:20:06;29.10;99.90
8684;DHT22;4379;59.744;18.206;2023-07-24T07:22:33;28.10;99.90
8684;DHT22;4379;59.744;18.206;2023-07-24T07:25:01;26.40;99.90
8684;DHT22;4379;59.744;18.206;2023-07-24T07:27:28;27.20;99.90
8684;DHT22;4379;59.744;18.206;2023-07-24T07:29:55;29.70;99.90
8684;DHT22;4379;59.744;18.206;2023-07-24T07:32:22;32.10;99.90
8684;DHT22;4379;59.744;18.206;2023-07-24T07:34:50;31.90;99.90
8684;DHT22;4379;59.744;18.206;2023-07-24T07:37:17;29.90;99.90
8684;DHT22;4379;59.744;18.206;2023-07-24T07:39:46;27.50;99.90
8684;DHT22;4379;59.744;18.206;2023-07-24T07:42:13;25.90;99.90
8684;DHT22;4379;59.744;18.206;2023-07-24T07:44:45;25.10;99.90
8684;DHT22;4379;59.744;18.206;2023-07-24T07:47:12;24.70;99.90
8684;DHT22;4379;59.744;18.206;2023-07-24T07:49:40;25.80;99.90
8684;DHT22;4379;59.744;18.206;2023-07-24T07:52:08;27.50;99.90
8684;DHT22;4379;59.744;18.206;2023-07-24T07:54:35;29.80;99.90
8684;DHT22;4379;59.744;18.206;2023-07-24T07:57:04;31.30;99.90
8684;DHT22;4379;59.744;18.206;2023-07-24T07:59:31;32.10;99.90
8684;DHT22;4379;59.744;18.206;2023-07-24T08:01:59;33.50;99.90
8684;DHT22;4379;59.744;18.206;2023-07-24T08:04:26;33.50;99.90
8684;DHT22;4379;59.744;18.206;2023-07-24T08:06:53;35.50;99.90
8684;DHT22;4379;59.744;18.206;2023-07-24T08:09:20;36.30;99.90
8684;DHT22;4379;59.744;18.206;2023-07-24T08:11:48;36.20;99.90
8684;DHT22;4379;59.744;18.206;2023-07-24T08:14:15;38.30;99.90
8684;DHT22;4379;59.744;18.206;2023-07-24T08:16:43;37.40;99.30
8684;DHT22;4379;59.744;18.206;2023-07-24T08:19:10;32.60;99.90
8684;DHT22;4379;59.744;18.206;2023-07-24T08:21:37;34.10;99.90
8684;DHT22;4379;59.744;18.206;2023-07-24T08:24:06;36.30;99.90
8684;DHT22;4379;59.744;18.206;2023-07-24T08:26:33;37.10;99.90
8684;DHT22;4379;59.744;18.206;2023-07-24T08:29:00;35.20;99.90
8684;DHT22;4379;59.744;18.206;2023-07-24T08:31:29;32.30;99.90
8684;DHT22;4379;59.744;18.206;2023-07-24T08:33:57;32.20;99.90
8684;DHT22;4379;59.744;18.206;2023-07-24T08:36:24;31.60;99.90
8684;DHT22;4379;59.744;18.206;2023-07-24T08:38:51;34.40;99.90
8684;DHT22;4379;59.744;18.206;2023-07-24T08:41:19;35.50;99.90
8684;DHT22;4379;59.744;18.206;2023-07-24T08:43:46;36.30;99.90
8684;DHT22;4379;59.744;18.206;2023-07-24T08:46:13;34.20;99.90
8684;DHT22;4379;59.744;18.206;2023-07-24T08:48:42;33.10;99.90
8684;DHT22;4379;59.744;18.206;2023-07-24T08:51:14;32.00;99.90
8684;DHT22;4379;59.744;18.206;2023-07-24T08:53:43;32.20;99.90
8684;DHT22;4379;59.744;18.206;2023-07-24T08:56:12;32.20;99.90
8684;DHT22;4379;59.744;18.206;2023-07-24T08:58:40;30.80;99.90
8684;DHT22;4379;59.744;18.206;2023-07-24T09:01:08;29.00;99.90
8684;DHT22;4379;59.744;18.206;2023-07-24T09:03:36;26.80;99.90
8684;DHT22;4379;59.744;18.206;2023-07-24T09:06:03;26.30;99.90
8684;DHT22;4379;59.744;18.206;2023-07-24T09:08:32;25.00;99.90
8684;DHT22;4379;59.744;18.206;2023-07-24T09:11:01;26.20;99.90
8684;DHT22;4379;59.744;18.206;2023-07-24T09:13:29;26.70;99.90
8684;DHT22;4379;59.744;18.206;2023-07-24T09:15:57;26.60;99.90
8684;DHT22;4379;59.744;18.206;2023-07-24T09:18:24;27.00;99.90
8684;DHT22;4379;59.744;18.206;2023-07-24T09:20:52;26.00;99.90
8684;DHT22;4379;59.744;18.206;2023-07-24T09:23:27;26.60;99.90
8684;DHT22;4379;59.744;18.206;2023-07-24T09:25:55;26.10;99.90
8684;DHT22;4379;59.744;18.206;2023-07-24T09:28:22;26.80;99.90
8684;DHT22;4379;59.744;18.206;2023-07-24T09:30:54;27.80;99.90
8684;DHT22;4379;59.744;18.206;2023-07-24T09:33:24;27.50;99.90
8684;DHT22;4379;59.744;18.206;2023-07-24T09:36:01;27.60;99.90
8684;DHT22;4379;59.744;18.206;2023-07-24T09:38:28;25.90;99.90
8684;DHT22;4379;59.744;18.206;2023-07-24T09:40:56;26.30;99.90
8684;DHT22;4379;59.744;18.206;2023-07-24T09:43:25;27.10;99.90
8684;DHT22;4379;59.744;18.206;2023-07-24T09:46:06;27.20;99.90
8684;DHT22;4379;59.744;18.206;2023-07-24T09:48:35;27.50;99.90
8684;DHT22;4379;59.744;18.206;2023-07-24T09:51:11;27.10;99.90
8684;DHT22;4379;59.744;18.206;2023-07-24T09:53:48;26.10;99.90
8684;DHT22;4379;59.744;18.206;2023-07-24T09:56:19;27.10;99.90
8684;DHT22;4379;59.744;18.206;2023-07-24T09:59:02;28.10;99.90
8684;DHT22;4379;59.744;18.206;2023-07-24T10:01:31;28.20;99.90
8684;DHT22;4379;59.744;18.206;2023-07-24T10:04:01;28.70;99.90
8684;DHT22;4379;59.744;18.206;2023-07-24T10:06:29;28.60;99.90
8684;DHT22;4379;59.744;18.206;2023-07-24T10:08:58;28.90;99.90
8684;DHT22;4379;59.744;18.206;2023-07-24T10:11:26;27.90;99.90
8684;DHT22;4379;59.744;18.206;2023-07-24T10:13:55;28.10;99.90
8684;DHT22;4379;59.744;18.206;2023-07-24T10:16:23;26.70;99.90
8684;DHT22;4379;59.744;18.206;2023-07-24T10:18:50;26.70;99.90
8684;DHT22;4379;59.744;18.206;2023-07-24T10:21:17;27.60;99.90
8684;DHT22;4379;59.744;18.206;2023-07-24T10:23:45;27.70;99.90
8684;DHT22;4379;59.744;18.206;2023-07-24T10:26:16;27.20;99.90
8684;DHT22;4379;59.744;18.206;2023-07-24T10:28:47;25.30;99.90
8684;DHT22;4379;59.744;18.206;2023-07-24T10:31:24;25.80;99.90
8684;DHT22;4379;59.744;18.206;2023-07-24T10:33:54;26.40;99.90
8684;DHT22;4379;59.744;18.206;2023-07-24T10:36:23;25.50;99.90
8684;DHT22;4379;59.744;18.206;2023-07-24T10:38:55;26.60;99.90
8684;DHT22;4379;59.744;18.206;2023-07-24T10:41:37;27.50;99.90
8684;DHT22;4379;59.744;18.206;2023-07-24T10:44:05;27.70;99.90
8684;DHT22;4379;59.744;18.206;2023-07-24T10:46:39;26.40;99.90
8684;DHT22;4379;59.744;18.206;2023-07-24T10:49:08;25.90;99.90
8684;DHT22;4379;59.744;18.206;2023-07-24T10:51:35;25.40;99.90
8684;DHT22;4379;59.744;18.206;2023-07-24T10:54:05;25.00;99.90
8684;DHT22;4379;59.744;18.206;2023-07-24T10:56:33;24.40;99.90
8684;DHT22;4379;59.744;18.206;2023-07-24T10:59:03;23.70;99.90
8684;DHT22;4379;59.744;18.206;2023-07-24T11:01:31;22.90;99.90
8684;DHT22;4379;59.744;18.206;2023-07-24T11:04:00;22.50;99.90
8684;DHT22;4379;59.744;18.206;2023-07-24T11:06:28;22.10;99.90
8684;DHT22;4379;59.744;18.206;2023-07-24T11:08:58;22.20;99.90
8684;DHT22;4379;59.744;18.206;2023-07-24T11:11:35;21.90;99.90
8684;DHT22;4379;59.744;18.206;2023-07-24T11:14:03;22.50;99.90
8684;DHT22;4379;59.744;18.206;2023-07-24T11:16:31;22.90;99.90
8684;DHT22;4379;59.744;18.206;2023-07-24T11:19:00;22.60;99.90
8684;DHT22;4379;59.744;18.206;2023-07-24T11:21:28;22.90;99.90
8684;DHT22;4379;59.744;18.206;2023-07-24T11:23:57;22.90;99.90
8684;DHT22;4379;59.744;18.206;2023-07-24T11:26:26;23.10;99.90
8684;DHT22;4379;59.744;18.206;2023-07-24T11:28:54;23.50;99.90
8684;DHT22;4379;59.744;18.206;2023-07-24T11:31:21;23.80;99.90
8684;DHT22;4379;59.744;18.206;2023-07-24T11:33:50;23.90;99.90
8684;DHT22;4379;59.744;18.206;2023-07-24T11:36:19;23.20;99.90
8684;DHT22;4379;59.744;18.206;2023-07-24T11:38:47;23.50;99.90
8684;DHT22;4379;59.744;18.206;2023-07-24T11:41:17;23.70;99.90
8684;DHT22;4379;59.744;18.206;2023-07-24T11:43:49;24.50;99.90
8684;DHT22;4379;59.744;18.206;2023-07-24T11:46:28;25.00;99.90
8684;DHT22;4379;59.744;18.206;2023-07-24T11:48:56;25.10;99.90
8684;DHT22;4379;59.744;18.206;2023-07-24T11:51:26;25.50;99.90
8684;DHT22;4379;59.744;18.206;2023-07-24T11:54:08;24.60;99.90
8684;DHT22;4379;59.744;18.206;2023-07-24T11:56:38;24.60;99.90
8684;DHT22;4379;59.744;18.206;2023-07-24T11:59:13;24.90;99.90
8684;DHT22;4379;59.744;18.206;2023-07-24T12:01:45;24.30;99.90
8684;DHT22;4379;59.744;18.206;2023-07-24T12:04:14;24.90;99.90
8684;DHT22;4379;59.744;18.206;2023-07-24T12:06:41;24.80;99.90
8684;DHT22;4379;59.744;18.206;2023-07-24T12:09:10;24.40;99.90
8684;DHT22;4379;59.744;18.206;2023-07-24T12:11:42;24.80;99.90
8684;DHT22;4379;59.744;18.206;2023-07-24T12:14:15;24.70;99.90
8684;DHT22;4379;59.744;18.206;2023-07-24T12:16:42;23.80;99.90
8684;DHT22;4379;59.744;18.206;2023-07-24T12:19:11;23.90;99.90
8684;DHT22;4379;59.744;18.206;2023-07-24T12:21:38;23.00;99.90
8684;DHT22;4379;59.744;18.206;2023-07-24T12:24:06;22.60;99.90
8684;DHT22;4379;59.744;18.206;2023-07-24T12:26:33;22.90;99.90
8684;DHT22;4379;59.744;18.206;2023-07-24T12:29:00;23.10;99.90
8684;DHT22;4379;59.744;18.206;2023-07-24T12:31:27;23.10;99.90
8684;DHT22;4379;59.744;18.206;2023-07-24T12:33:56;22.40;99.90
8684;DHT22;4379;59.744;18.206;2023-07-24T12:36:23;22.20;99.90
8684;DHT22;4379;59.744;18.206;2023-07-24T12:38:50;22.20;99.90
8684;DHT22;4379;59.744;18.206;2023-07-24T12:41:18;22.50;99.90
8684;DHT22;4379;59.744;18.206;2023-07-24T12:43:45;22.40;99.90
8684;DHT22;4379;59.744;18.206;2023-07-24T12:46:12;22.40;99.90
8684;DHT22;4379;59.744;18.206;2023-07-24T12:48:40;22.50;99.90
8684;DHT22;4379;59.744;18.206;2023-07-24T12:51:07;22.40;99.90
8684;DHT22;4379;59.744;18.206;2023-07-24T12:53:34;22.50;99.90
8684;DHT22;4379;59.744;18.206;2023-07-24T12:56:14;22.90;99.90
8684;DHT22;4379;59.744;18.206;2023-07-24T12:58:41;22.80;99.90
8684;DHT22;4379;59.744;18.206;2023-07-24T13:01:09;22.80;99.90
8684;DHT22;4379;59.744;18.206;2023-07-24T13:04:08;22.90;99.90
8684;DHT22;4379;59.744;18.206;2023-07-24T13:06:58;22.80;99.90
8684;DHT22;4379;59.744;18.206;2023-07-24T13:09:27;22.90;99.90
8684;DHT22;4379;59.744;18.206;2023-07-24T13:11:55;22.80;99.90
8684;DHT22;4379;59.744;18.206;2023-07-24T13:14:22;23.10;99.90
8684;DHT22;4379;59.744;18.206;2023-07-24T13:16:50;23.10;99.90
8684;DHT22;4379;59.744;18.206;2023-07-24T13:19:18;23.00;99.90
8684;DHT22;4379;59.744;18.206;2023-07-24T13:21:47;22.80;99.90
8684;DHT22;4379;59.744;18.206;2023-07-24T13:24:15;22.90;99.90
8684;DHT22;4379;59.744;18.206;2023-07-24T13:26:43;22.60;99.90
8684;DHT22;4379;59.744;18.206;2023-07-24T13:29:11;22.70;99.90
8684;DHT22;4379;59.744;18.206;2023-07-24T13:31:38;22.70;99.90
8684;DHT22;4379;59.744;18.206;2023-07-24T13:34:07;22.50;99.90
8684;DHT22;4379;59.744;18.206;2023-07-24T13:36:37;22.60;99.90
8684;DHT22;4379;59.744;18.206;2023-07-24T13:39:05;22.80;99.90
8684;DHT22;4379;59.744;18.206;2023-07-24T13:41:33;22.50;99.90
8684;DHT22;4379;59.744;18.206;2023-07-24T13:44:01;22.50;99.90
8684;DHT22;4379;59.744;18.206;2023-07-24T13:46:28;22.40;99.90
8684;DHT22;4379;59.744;18.206;2023-07-24T13:48:56;22.40;99.90
8684;DHT22;4379;59.744;18.206;2023-07-24T13:51:23;22.20;99.90
8684;DHT22;4379;59.744;18.206;2023-07-24T13:53:51;22.10;99.90
8684;DHT22;4379;59.744;18.206;2023-07-24T13:56:18;22.10;99.90
8684;DHT22;4379;59.744;18.206;2023-07-24T13:58:46;21.80;99.90
8684;DHT22;4379;59.744;18.206;2023-07-24T14:01:14;21.50;99.90
8684;DHT22;4379;59.744;18.206;2023-07-24T14:03:41;21.50;99.90
8684;DHT22;4379;59.744;18.206;2023-07-24T14:06:08;21.40;99.90
8684;DHT22;4379;59.744;18.206;2023-07-24T14:08:36;21.30;99.90
8684;DHT22;4379;59.744;18.206;2023-07-24T14:11:03;21.40;99.90
8684;DHT22;4379;59.744;18.206;2023-07-24T14:13:31;21.40;99.90
8684;DHT22;4379;59.744;18.206;2023-07-24T14:15:58;21.30;99.90
8684;DHT22;4379;59.744;18.206;2023-07-24T14:18:25;21.00;99.90
8684;DHT22;4379;59.744;18.206;2023-07-24T14:20:53;20.90;99.90
8684;DHT22;4379;59.744;18.206;2023-07-24T14:23:22;21.00;99.90
8684;DHT22;4379;59.744;18.206;2023-07-24T14:25:49;20.70;99.90
8684;DHT22;4379;59.744;18.206;2023-07-24T14:28:17;20.60;99.90
8684;DHT22;4379;59.744;18.206;2023-07-24T14:30:44;20.40;99.90
8684;DHT22;4379;59.744;18.206;2023-07-24T14:33:11;20.30;99.90
8684;DHT22;4379;59.744;18.206;2023-07-24T14:35:38;20.20;99.90
8684;DHT22;4379;59.744;18.206;2023-07-24T14:38:06;20.10;99.90
8684;DHT22;4379;59.744;18.206;2023-07-24T14:40:33;20.10;99.90
8684;DHT22;4379;59.744;18.206;2023-07-24T14:43:01;20.10;99.90
8684;DHT22;4379;59.744;18.206;2023-07-24T14:45:33;20.40;99.90
8684;DHT22;4379;59.744;18.206;2023-07-24T14:48:00;20.70;99.90
8684;DHT22;4379;59.744;18.206;2023-07-24T14:50:28;20.90;99.90
8684;DHT22;4379;59.744;18.206;2023-07-24T14:52:56;21.00;99.90
8684;DHT22;4379;59.744;18.206;2023-07-24T14:55:23;21.30;99.90
8684;DHT22;4379;59.744;18.206;2023-07-24T14:57:50;21.60;99.90
8684;DHT22;4379;59.744;18.206;2023-07-24T15:00:17;21.70;99.90
8684;DHT22;4379;59.744;18.206;2023-07-24T15:02:55;21.80;99.90
8684;DHT22;4379;59.744;18.206;2023-07-24T15:05:24;22.00;99.90
8684;DHT22;4379;59.744;18.206;2023-07-24T15:08:04;21.80;99.90
8684;DHT22;4379;59.744;18.206;2023-07-24T15:10:31;21.60;99.90
8684;DHT22;4379;59.744;18.206;2023-07-24T15:12:59;21.50;99.90
8684;DHT22;4379;59.744;18.206;2023-07-24T15:15:28;21.30;99.90
8684;DHT22;4379;59.744;18.206;2023-07-24T15:17:56;21.20;99.90
8684;DHT22;4379;59.744;18.206;2023-07-24T15:20:23;21.20;99.90
8684;DHT22;4379;59.744;18.206;2023-07-24T15:22:50;21.30;99.90
8684;DHT22;4379;59.744;18.206;2023-07-24T15:25:20;21.30;99.90
8684;DHT22;4379;59.744;18.206;2023-07-24T15:27:48;21.10;99.90
8684;DHT22;4379;59.744;18.206;2023-07-24T15:30:15;21.00;99.90
8684;DHT22;4379;59.744;18.206;2023-07-24T15:32:42;20.80;99.90
8684;DHT22;4379;59.744;18.206;2023-07-24T15:35:10;20.70;99.90
8684;DHT22;4379;59.744;18.206;2023-07-24T15:37:37;20.60;99.90
8684;DHT22;4379;59.744;18.206;2023-07-24T15:40:05;20.60;99.90
8684;DHT22;4379;59.744;18.206;2023-07-24T15:42:32;20.60;99.90
8684;DHT22;4379;59.744;18.206;2023-07-24T15:45:00;20.30;99.90
8684;DHT22;4379;59.744;18.206;2023-07-24T15:47:27;20.40;99.90
8684;DHT22;4379;59.744;18.206;2023-07-24T15:49:55;20.30;99.90
8684;DHT22;4379;59.744;18.206;2023-07-24T15:52:22;20.30;99.90
8684;DHT22;4379;59.744;18.206;2023-07-24T15:54:49;20.20;99.90
8684;DHT22;4379;59.744;18.206;2023-07-24T15:57:17;20.10;99.90
8684;DHT22;4379;59.744;18.206;2023-07-24T15:59:44;20.10;99.90